sensor_id;sensor_type;location;lat;lon;timestamp;P1;durP1;ratioP1;P2;durP2;ratioP2
35562;SDS011;21665;40.108;18.302;2022-07-06T00:00:17;16.95;;;14.10;;
35562;SDS011;21665;40.108;18.302;2022-07-06T00:02:43;19.80;;;12.65;;
35562;SDS011;21665;40.108;18.302;2022-07-06T00:05:10;16.55;;;12.82;;
35562;SDS011;21665;40.108;18.302;2022-07-06T00:07:52;17.52;;;13.27;;
35562;SDS011;21665;40.108;18.302;2022-07-06T00:10:18;19.98;;;12.60;;
35562;SDS011;21665;40.108;18.302;2022-07-06T00:12:45;16.92;;;13.05;;
35562;SDS011;21665;40.108;18.302;2022-07-06T00:15:11;22.23;;;14.18;;
35562;SDS011;21665;40.108;18.302;2022-07-06T00:17:38;19.15;;;14.70;;
35562;SDS011;21665;40.108;18.302;2022-07-06T00:20:05;18.23;;;13.10;;
35562;SDS011;21665;40.108;18.302;2022-07-06T00:22:32;17.60;;;13.82;;
35562;SDS011;21665;40.108;18.302;2022-07-06T00:24:58;15.70;;;13.10;;
35562;SDS011;21665;40.108;18.302;2022-07-06T00:27:25;16.90;;;12.57;;
35562;SDS011;21665;40.108;18.302;2022-07-06T00:29:51;14.75;;;11.52;;
35562;SDS011;21665;40.108;18.302;2022-07-06T00:32:21;15.65;;;11.20;;
35562;SDS011;21665;40.108;18.302;2022-07-06T00:34:54;16.08;;;10.98;;
35562;SDS011;21665;40.108;18.302;2022-07-06T00:37:21;16.98;;;10.48;;
35562;SDS011;21665;40.108;18.302;2022-07-06T00:39:51;14.68;;;9.77;;
35562;SDS011;21665;40.108;18.302;2022-07-06T00:42:18;16.60;;;10.05;;
35562;SDS011;21665;40.108;18.302;2022-07-06T00:44:44;12.13;;;9.60;;
35562;SDS011;21665;40.108;18.302;2022-07-06T00:47:11;12.80;;;9.43;;
35562;SDS011;21665;40.108;18.302;2022-07-06T00:49:37;15.10;;;9.35;;
35562;SDS011;21665;40.108;18.302;2022-07-06T00:52:23;12.27;;;7.80;;
35562;SDS011;21665;40.108;18.302;2022-07-06T00:54:49;12.23;;;7.70;;
35562;SDS011;21665;40.108;18.302;2022-07-06T00:57:18;10.40;;;7.13;;
35562;SDS011;21665;40.108;18.302;2022-07-06T00:59:45;13.00;;;7.00;;
35562;SDS011;21665;40.108;18.302;2022-07-06T01:02:11;9.52;;;6.38;;
35562;SDS011;21665;40.108;18.302;2022-07-06T01:04:38;12.18;;;6.30;;
35562;SDS011;21665;40.108;18.302;2022-07-06T01:07:04;10.68;;;6.55;;
35562;SDS011;21665;40.108;18.302;2022-07-06T01:09:31;12.77;;;6.85;;
35562;SDS011;21665;40.108;18.302;2022-07-06T01:11:57;11.25;;;6.88;;
35562;SDS011;21665;40.108;18.302;2022-07-06T01:14:24;13.15;;;6.90;;
35562;SDS011;21665;40.108;18.302;2022-07-06T01:16:51;11.68;;;6.25;;
35562;SDS011;21665;40.108;18.302;2022-07-06T01:19:18;8.98;;;6.85;;
35562;SDS011;21665;40.108;18.302;2022-07-06T01:21:45;10.55;;;6.18;;
35562;SDS011;21665;40.108;18.302;2022-07-06T01:24:18;12.02;;;6.40;;
35562;SDS011;21665;40.108;18.302;2022-07-06T01:26:47;10.48;;;7.13;;
35562;SDS011;21665;40.108;18.302;2022-07-06T01:29:34;8.75;;;6.85;;
35562;SDS011;21665;40.108;18.302;2022-07-06T01:32:00;15.27;;;6.85;;
35562;SDS011;21665;40.108;18.302;2022-07-06T01:34:27;13.80;;;7.32;;
35562;SDS011;21665;40.108;18.302;2022-07-06T01:36:54;10.13;;;6.97;;
35562;SDS011;21665;40.108;18.302;2022-07-06T01:39:21;9.40;;;7.38;;
35562;SDS011;21665;40.108;18.302;2022-07-06T01:41:54;11.85;;;6.93;;
35562;SDS011;21665;40.108;18.302;2022-07-06T01:44:20;8.98;;;7.30;;
35562;SDS011;21665;40.108;18.302;2022-07-06T01:46:47;11.52;;;7.15;;
35562;SDS011;21665;40.108;18.302;2022-07-06T01:49:13;12.20;;;6.80;;
35562;SDS011;21665;40.108;18.302;2022-07-06T01:51:40;12.68;;;7.00;;
35562;SDS011;21665;40.108;18.302;2022-07-06T01:54:06;9.50;;;6.93;;
35562;SDS011;21665;40.108;18.302;2022-07-06T01:56:33;10.52;;;6.18;;
35562;SDS011;21665;40.108;18.302;2022-07-06T01:59:03;7.53;;;6.05;;
35562;SDS011;21665;40.108;18.302;2022-07-06T02:01:33;9.82;;;6.10;;
35562;SDS011;21665;40.108;18.302;2022-07-06T02:04:01;14.88;;;6.85;;
35562;SDS011;21665;40.108;18.302;2022-07-06T02:06:28;11.63;;;6.00;;
35562;SDS011;21665;40.108;18.302;2022-07-06T02:08:54;12.27;;;6.70;;
35562;SDS011;21665;40.108;18.302;2022-07-06T02:11:20;9.85;;;6.53;;
35562;SDS011;21665;40.108;18.302;2022-07-06T02:13:47;11.85;;;6.43;;
35562;SDS011;21665;40.108;18.302;2022-07-06T02:16:13;12.32;;;7.10;;
35562;SDS011;21665;40.108;18.302;2022-07-06T02:18:40;17.25;;;6.80;;
35562;SDS011;21665;40.108;18.302;2022-07-06T02:21:09;13.00;;;6.43;;
35562;SDS011;21665;40.108;18.302;2022-07-06T02:23:36;9.63;;;7.43;;
35562;SDS011;21665;40.108;18.302;2022-07-06T02:26:03;11.10;;;7.13;;
35562;SDS011;21665;40.108;18.302;2022-07-06T02:28:30;12.07;;;7.40;;
35562;SDS011;21665;40.108;18.302;2022-07-06T02:30:57;10.73;;;7.45;;
35562;SDS011;21665;40.108;18.302;2022-07-06T02:33:29;15.32;;;8.35;;
35562;SDS011;21665;40.108;18.302;2022-07-06T02:35:55;10.63;;;7.80;;
35562;SDS011;21665;40.108;18.302;2022-07-06T02:38:22;14.88;;;8.90;;
35562;SDS011;21665;40.108;18.302;2022-07-06T02:40:48;14.55;;;8.48;;
35562;SDS011;21665;40.108;18.302;2022-07-06T02:43:15;12.85;;;8.90;;
35562;SDS011;21665;40.108;18.302;2022-07-06T02:45:42;14.27;;;8.70;;
35562;SDS011;21665;40.108;18.302;2022-07-06T02:48:13;11.07;;;8.07;;
35562;SDS011;21665;40.108;18.302;2022-07-06T02:50:40;14.23;;;9.25;;
35562;SDS011;21665;40.108;18.302;2022-07-06T02:53:06;15.50;;;9.35;;
35562;SDS011;21665;40.108;18.302;2022-07-06T02:55:33;15.60;;;9.68;;
35562;SDS011;21665;40.108;18.302;2022-07-06T02:58:02;16.05;;;9.35;;
35562;SDS011;21665;40.108;18.302;2022-07-06T03:00:30;16.77;;;9.65;;
35562;SDS011;21665;40.108;18.302;2022-07-06T03:02:57;17.60;;;10.27;;
35562;SDS011;21665;40.108;18.302;2022-07-06T03:08:22;17.02;;;9.55;;
35562;SDS011;21665;40.108;18.302;2022-07-06T03:10:49;14.48;;;9.55;;
35562;SDS011;21665;40.108;18.302;2022-07-06T03:13:16;15.55;;;10.38;;
35562;SDS011;21665;40.108;18.302;2022-07-06T03:15:44;23.63;;;10.27;;
35562;SDS011;21665;40.108;18.302;2022-07-06T03:18:11;16.33;;;10.15;;
35562;SDS011;21665;40.108;18.302;2022-07-06T03:20:38;17.45;;;10.27;;
35562;SDS011;21665;40.108;18.302;2022-07-06T03:23:12;21.35;;;10.23;;
35562;SDS011;21665;40.108;18.302;2022-07-06T03:25:38;21.75;;;9.77;;
35562;SDS011;21665;40.108;18.302;2022-07-06T03:28:05;22.92;;;10.45;;
35562;SDS011;21665;40.108;18.302;2022-07-06T03:30:36;22.08;;;10.77;;
35562;SDS011;21665;40.108;18.302;2022-07-06T03:33:06;17.42;;;9.75;;
35562;SDS011;21665;40.108;18.302;2022-07-06T03:35:33;25.55;;;10.73;;
35562;SDS011;21665;40.108;18.302;2022-07-06T03:38:08;19.20;;;9.77;;
35562;SDS011;21665;40.108;18.302;2022-07-06T03:40:35;19.63;;;11.00;;
35562;SDS011;21665;40.108;18.302;2022-07-06T03:43:02;20.75;;;10.77;;
35562;SDS011;21665;40.108;18.302;2022-07-06T03:45:33;22.10;;;8.32;;
35562;SDS011;21665;40.108;18.302;2022-07-06T03:48:01;19.15;;;7.95;;
35562;SDS011;21665;40.108;18.302;2022-07-06T03:50:30;19.45;;;9.15;;
35562;SDS011;21665;40.108;18.302;2022-07-06T03:52:58;21.73;;;8.48;;
35562;SDS011;21665;40.108;18.302;2022-07-06T03:55:24;14.10;;;8.18;;
35562;SDS011;21665;40.108;18.302;2022-07-06T03:57:57;17.42;;;8.15;;
35562;SDS011;21665;40.108;18.302;2022-07-06T04:00:23;27.90;;;8.23;;
35562;SDS011;21665;40.108;18.302;2022-07-06T04:03:01;19.45;;;8.35;;
35562;SDS011;21665;40.108;18.302;2022-07-06T04:05:33;22.10;;;8.02;;
35562;SDS011;21665;40.108;18.302;2022-07-06T04:08:01;20.05;;;7.90;;
35562;SDS011;21665;40.108;18.302;2022-07-06T04:10:42;16.50;;;7.25;;
35562;SDS011;21665;40.108;18.302;2022-07-06T04:13:09;16.95;;;7.18;;
35562;SDS011;21665;40.108;18.302;2022-07-06T04:15:36;15.82;;;7.20;;
35562;SDS011;21665;40.108;18.302;2022-07-06T04:18:11;14.80;;;6.80;;
35562;SDS011;21665;40.108;18.302;2022-07-06T04:20:45;20.25;;;6.28;;
35562;SDS011;21665;40.108;18.302;2022-07-06T04:23:13;21.15;;;6.40;;
35562;SDS011;21665;40.108;18.302;2022-07-06T04:25:39;20.75;;;7.05;;
35562;SDS011;21665;40.108;18.302;2022-07-06T04:28:07;14.38;;;5.72;;
35562;SDS011;21665;40.108;18.302;2022-07-06T04:30:36;18.73;;;6.07;;
35562;SDS011;21665;40.108;18.302;2022-07-06T04:33:06;18.58;;;5.97;;
35562;SDS011;21665;40.108;18.302;2022-07-06T04:35:35;11.85;;;5.30;;
35562;SDS011;21665;40.108;18.302;2022-07-06T04:38:02;16.70;;;5.57;;
35562;SDS011;21665;40.108;18.302;2022-07-06T04:40:29;21.05;;;4.93;;
35562;SDS011;21665;40.108;18.302;2022-07-06T04:43:01;13.27;;;5.00;;
35562;SDS011;21665;40.108;18.302;2022-07-06T04:45:35;17.27;;;5.72;;
35562;SDS011;21665;40.108;18.302;2022-07-06T04:48:03;11.07;;;4.55;;
35562;SDS011;21665;40.108;18.302;2022-07-06T04:50:30;18.55;;;5.13;;
35562;SDS011;21665;40.108;18.302;2022-07-06T04:53:01;16.35;;;4.40;;
35562;SDS011;21665;40.108;18.302;2022-07-06T04:55:30;18.63;;;3.72;;
35562;SDS011;21665;40.108;18.302;2022-07-06T04:57:57;15.05;;;3.90;;
35562;SDS011;21665;40.108;18.302;2022-07-06T05:00:30;17.70;;;4.72;;
35562;SDS011;21665;40.108;18.302;2022-07-06T05:03:00;10.13;;;3.50;;
35562;SDS011;21665;40.108;18.302;2022-07-06T05:05:27;16.48;;;4.10;;
35562;SDS011;21665;40.108;18.302;2022-07-06T05:07:54;13.80;;;3.63;;
35562;SDS011;21665;40.108;18.302;2022-07-06T05:10:21;11.85;;;3.83;;
35562;SDS011;21665;40.108;18.302;2022-07-06T05:12:53;11.82;;;3.38;;
35562;SDS011;21665;40.108;18.302;2022-07-06T05:15:25;20.20;;;5.10;;
35562;SDS011;21665;40.108;18.302;2022-07-06T05:17:53;13.82;;;4.07;;
35562;SDS011;21665;40.108;18.302;2022-07-06T05:20:19;16.25;;;3.88;;
35562;SDS011;21665;40.108;18.302;2022-07-06T05:22:48;16.70;;;3.33;;
35562;SDS011;21665;40.108;18.302;2022-07-06T05:25:18;24.33;;;4.38;;
35562;SDS011;21665;40.108;18.302;2022-07-06T05:27:45;17.10;;;4.07;;
35562;SDS011;21665;40.108;18.302;2022-07-06T05:30:21;14.93;;;4.13;;
35562;SDS011;21665;40.108;18.302;2022-07-06T05:32:49;17.85;;;4.22;;
35562;SDS011;21665;40.108;18.302;2022-07-06T05:35:18;11.73;;;3.50;;
35562;SDS011;21665;40.108;18.302;2022-07-06T05:37:49;19.83;;;4.78;;
35562;SDS011;21665;40.108;18.302;2022-07-06T05:40:22;12.68;;;3.90;;
35562;SDS011;21665;40.108;18.302;2022-07-06T05:42:48;17.83;;;3.83;;
35562;SDS011;21665;40.108;18.302;2022-07-06T05:45:31;12.98;;;3.58;;
35562;SDS011;21665;40.108;18.302;2022-07-06T05:48:01;16.25;;;3.83;;
35562;SDS011;21665;40.108;18.302;2022-07-06T05:50:46;8.60;;;3.53;;
35562;SDS011;21665;40.108;18.302;2022-07-06T05:53:13;12.80;;;3.65;;
35562;SDS011;21665;40.108;18.302;2022-07-06T05:55:39;10.68;;;3.58;;
35562;SDS011;21665;40.108;18.302;2022-07-06T05:58:11;9.90;;;3.80;;
35562;SDS011;21665;40.108;18.302;2022-07-06T06:00:46;9.55;;;3.03;;
35562;SDS011;21665;40.108;18.302;2022-07-06T06:03:17;22.10;;;3.97;;
35562;SDS011;21665;40.108;18.302;2022-07-06T06:05:56;12.52;;;3.70;;
35562;SDS011;21665;40.108;18.302;2022-07-06T06:08:24;15.88;;;3.15;;
35562;SDS011;21665;40.108;18.302;2022-07-06T06:13:40;13.95;;;4.10;;
35562;SDS011;21665;40.108;18.302;2022-07-06T06:16:19;12.45;;;4.28;;
35562;SDS011;21665;40.108;18.302;2022-07-06T06:18:49;8.45;;;3.63;;
35562;SDS011;21665;40.108;18.302;2022-07-06T06:21:16;13.80;;;3.50;;
35562;SDS011;21665;40.108;18.302;2022-07-06T06:23:43;13.88;;;3.80;;
35562;SDS011;21665;40.108;18.302;2022-07-06T06:26:10;13.05;;;3.83;;
35562;SDS011;21665;40.108;18.302;2022-07-06T06:28:37;20.60;;;4.30;;
35562;SDS011;21665;40.108;18.302;2022-07-06T06:31:03;13.57;;;4.05;;
35562;SDS011;21665;40.108;18.302;2022-07-06T06:55:42;14.25;;;4.35;;
35562;SDS011;21665;40.108;18.302;2022-07-06T06:58:27;13.77;;;4.40;;
35562;SDS011;21665;40.108;18.302;2022-07-06T07:05:23;8.80;;;4.15;;
35562;SDS011;21665;40.108;18.302;2022-07-06T07:07:50;12.15;;;4.45;;
35562;SDS011;21665;40.108;18.302;2022-07-06T07:10:17;11.93;;;3.38;;
35562;SDS011;21665;40.108;18.302;2022-07-06T07:12:45;13.23;;;4.35;;
35562;SDS011;21665;40.108;18.302;2022-07-06T07:15:13;16.10;;;3.85;;
35562;SDS011;21665;40.108;18.302;2022-07-06T07:17:42;12.20;;;4.30;;
35562;SDS011;21665;40.108;18.302;2022-07-06T07:20:11;16.10;;;4.07;;
35562;SDS011;21665;40.108;18.302;2022-07-06T07:22:39;15.25;;;5.20;;
35562;SDS011;21665;40.108;18.302;2022-07-06T07:25:06;17.20;;;4.38;;
35562;SDS011;21665;40.108;18.302;2022-07-06T07:27:37;13.75;;;5.07;;
35562;SDS011;21665;40.108;18.302;2022-07-06T07:30:33;11.68;;;4.20;;
35562;SDS011;21665;40.108;18.302;2022-07-06T07:32:59;13.07;;;4.13;;
35562;SDS011;21665;40.108;18.302;2022-07-06T07:35:27;13.80;;;4.50;;
35562;SDS011;21665;40.108;18.302;2022-07-06T07:37:53;10.88;;;3.90;;
35562;SDS011;21665;40.108;18.302;2022-07-06T07:40:20;8.48;;;4.32;;
35562;SDS011;21665;40.108;18.302;2022-07-06T07:42:47;10.18;;;4.00;;
35562;SDS011;21665;40.108;18.302;2022-07-06T07:45:14;12.32;;;4.10;;
35562;SDS011;21665;40.108;18.302;2022-07-06T07:47:50;13.27;;;4.68;;
35562;SDS011;21665;40.108;18.302;2022-07-06T07:50:25;11.23;;;4.80;;
35562;SDS011;21665;40.108;18.302;2022-07-06T07:52:52;9.93;;;4.07;;
35562;SDS011;21665;40.108;18.302;2022-07-06T07:55:19;7.90;;;3.88;;
35562;SDS011;21665;40.108;18.302;2022-07-06T07:57:45;14.90;;;5.13;;
35562;SDS011;21665;40.108;18.302;2022-07-06T08:00:12;11.48;;;3.95;;
35562;SDS011;21665;40.108;18.302;2022-07-06T08:02:39;11.68;;;4.75;;
35562;SDS011;21665;40.108;18.302;2022-07-06T08:05:12;13.05;;;4.60;;
35562;SDS011;21665;40.108;18.302;2022-07-06T08:07:48;13.80;;;4.90;;
35562;SDS011;21665;40.108;18.302;2022-07-06T09:06:20;9.15;;;5.10;;
35562;SDS011;21665;40.108;18.302;2022-07-06T09:09:04;12.75;;;5.57;;
35562;SDS011;21665;40.108;18.302;2022-07-06T09:11:32;10.98;;;4.82;;
35562;SDS011;21665;40.108;18.302;2022-07-06T09:14:05;10.52;;;5.25;;
35562;SDS011;21665;40.108;18.302;2022-07-06T09:16:32;6.50;;;5.55;;
35562;SDS011;21665;40.108;18.302;2022-07-06T09:18:59;9.50;;;5.00;;
35562;SDS011;21665;40.108;18.302;2022-07-06T09:21:27;12.00;;;5.35;;
35562;SDS011;21665;40.108;18.302;2022-07-06T09:23:59;14.02;;;5.50;;
35562;SDS011;21665;40.108;18.302;2022-07-06T09:26:30;9.40;;;6.05;;
35562;SDS011;21665;40.108;18.302;2022-07-06T09:28:57;12.82;;;6.47;;
35562;SDS011;21665;40.108;18.302;2022-07-06T09:31:25;9.52;;;6.32;;
35562;SDS011;21665;40.108;18.302;2022-07-06T09:34:00;13.98;;;5.57;;
35562;SDS011;21665;40.108;18.302;2022-07-06T09:36:48;10.40;;;5.87;;
35562;SDS011;21665;40.108;18.302;2022-07-06T09:39:19;13.77;;;6.72;;
35562;SDS011;21665;40.108;18.302;2022-07-06T09:41:49;11.18;;;6.70;;
35562;SDS011;21665;40.108;18.302;2022-07-06T09:44:27;12.80;;;6.88;;
35562;SDS011;21665;40.108;18.302;2022-07-06T09:46:58;16.55;;;7.15;;
35562;SDS011;21665;40.108;18.302;2022-07-06T09:49:25;14.23;;;6.70;;
35562;SDS011;21665;40.108;18.302;2022-07-06T09:51:56;14.73;;;5.55;;
35562;SDS011;21665;40.108;18.302;2022-07-06T09:54:29;12.93;;;6.57;;
35562;SDS011;21665;40.108;18.302;2022-07-06T09:56:57;11.90;;;6.35;;
35562;SDS011;21665;40.108;18.302;2022-07-06T09:59:25;13.80;;;6.38;;
35562;SDS011;21665;40.108;18.302;2022-07-06T10:01:54;14.90;;;6.88;;
35562;SDS011;21665;40.108;18.302;2022-07-06T10:04:25;10.77;;;6.68;;
35562;SDS011;21665;40.108;18.302;2022-07-06T10:06:53;11.02;;;7.00;;
35562;SDS011;21665;40.108;18.302;2022-07-06T10:09:21;12.02;;;7.63;;
35562;SDS011;21665;40.108;18.302;2022-07-06T10:14:21;9.55;;;7.40;;
35562;SDS011;21665;40.108;18.302;2022-07-06T10:16:50;17.38;;;7.43;;
35562;SDS011;21665;40.108;18.302;2022-07-06T10:19:18;18.98;;;7.40;;
35562;SDS011;21665;40.108;18.302;2022-07-06T10:21:50;14.38;;;7.57;;
35562;SDS011;21665;40.108;18.302;2022-07-06T10:24:18;12.68;;;7.18;;
35562;SDS011;21665;40.108;18.302;2022-07-06T10:26:46;14.05;;;7.93;;
35562;SDS011;21665;40.108;18.302;2022-07-06T10:29:14;14.70;;;8.15;;
35562;SDS011;21665;40.108;18.302;2022-07-06T10:31:45;11.18;;;8.10;;
35562;SDS011;21665;40.108;18.302;2022-07-06T10:34:13;14.93;;;8.85;;
35562;SDS011;21665;40.108;18.302;2022-07-06T10:36:42;19.08;;;8.77;;
35562;SDS011;21665;40.108;18.302;2022-07-06T10:39:10;9.88;;;7.13;;
35562;SDS011;21665;40.108;18.302;2022-07-06T10:41:57;13.40;;;8.10;;
35562;SDS011;21665;40.108;18.302;2022-07-06T10:44:24;8.32;;;7.45;;
35562;SDS011;21665;40.108;18.302;2022-07-06T10:46:54;19.17;;;8.80;;
35562;SDS011;21665;40.108;18.302;2022-07-06T10:49:26;12.82;;;7.85;;
35562;SDS011;21665;40.108;18.302;2022-07-06T10:51:55;9.20;;;7.70;;
35562;SDS011;21665;40.108;18.302;2022-07-06T10:54:24;8.70;;;7.75;;
35562;SDS011;21665;40.108;18.302;2022-07-06T10:56:51;11.23;;;8.05;;
35562;SDS011;21665;40.108;18.302;2022-07-06T10:59:20;11.23;;;6.38;;
35562;SDS011;21665;40.108;18.302;2022-07-06T11:04:42;13.20;;;7.40;;
35562;SDS011;21665;40.108;18.302;2022-07-06T11:07:12;13.88;;;7.72;;
35562;SDS011;21665;40.108;18.302;2022-07-06T11:09:39;12.18;;;8.43;;
35562;SDS011;21665;40.108;18.302;2022-07-06T11:12:15;15.75;;;8.77;;
35562;SDS011;21665;40.108;18.302;2022-07-06T11:14:47;10.18;;;8.15;;
35562;SDS011;21665;40.108;18.302;2022-07-06T11:17:15;10.77;;;7.72;;
35562;SDS011;21665;40.108;18.302;2022-07-06T15:05:26;12.40;;;10.68;;
35562;SDS011;21665;40.108;18.302;2022-07-06T15:21:22;10.30;;;9.25;;
35562;SDS011;21665;40.108;18.302;2022-07-06T15:24:37;11.30;;;10.30;;
35562;SDS011;21665;40.108;18.302;2022-07-06T15:30:41;15.20;;;10.05;;
35562;SDS011;21665;40.108;18.302;2022-07-06T15:33:12;11.00;;;10.18;;
35562;SDS011;21665;40.108;18.302;2022-07-06T15:35:39;10.57;;;9.77;;
35562;SDS011;21665;40.108;18.302;2022-07-06T15:38:06;10.88;;;9.95;;
35562;SDS011;21665;40.108;18.302;2022-07-06T15:40:33;10.30;;;9.60;;
35562;SDS011;21665;40.108;18.302;2022-07-06T15:43:07;14.18;;;10.52;;
35562;SDS011;21665;40.108;18.302;2022-07-06T15:45:36;10.60;;;9.65;;
35562;SDS011;21665;40.108;18.302;2022-07-06T15:48:12;16.35;;;10.75;;
35562;SDS011;21665;40.108;18.302;2022-07-06T15:50:39;11.10;;;10.05;;
35562;SDS011;21665;40.108;18.302;2022-07-06T15:53:11;11.68;;;10.48;;
35562;SDS011;21665;40.108;18.302;2022-07-06T15:55:38;13.02;;;10.30;;
35562;SDS011;21665;40.108;18.302;2022-07-06T15:58:07;11.25;;;10.30;;
35562;SDS011;21665;40.108;18.302;2022-07-06T16:00:38;10.48;;;9.80;;
35562;SDS011;21665;40.108;18.302;2022-07-06T16:03:14;10.68;;;9.75;;
35562;SDS011;21665;40.108;18.302;2022-07-06T16:05:41;10.73;;;9.82;;
35562;SDS011;21665;40.108;18.302;2022-07-06T16:08:08;10.88;;;9.80;;
35562;SDS011;21665;40.108;18.302;2022-07-06T16:10:35;12.23;;;9.50;;
35562;SDS011;21665;40.108;18.302;2022-07-06T16:13:03;13.70;;;9.93;;
35562;SDS011;21665;40.108;18.302;2022-07-06T16:15:38;11.65;;;10.40;;
35562;SDS011;21665;40.108;18.302;2022-07-06T16:18:16;11.20;;;10.13;;
35562;SDS011;21665;40.108;18.302;2022-07-06T16:20:42;10.65;;;9.65;;
35562;SDS011;21665;40.108;18.302;2022-07-06T16:23:10;10.90;;;10.00;;
35562;SDS011;21665;40.108;18.302;2022-07-06T16:48:30;10.27;;;8.55;;
35562;SDS011;21665;40.108;18.302;2022-07-06T16:50:56;9.40;;;8.60;;
35562;SDS011;21665;40.108;18.302;2022-07-06T16:53:31;13.80;;;8.82;;
35562;SDS011;21665;40.108;18.302;2022-07-06T16:55:58;8.98;;;8.07;;
35562;SDS011;21665;40.108;18.302;2022-07-06T16:58:31;11.05;;;7.45;;
35562;SDS011;21665;40.108;18.302;2022-07-06T17:01:04;11.35;;;8.30;;
35562;SDS011;21665;40.108;18.302;2022-07-06T17:03:30;8.82;;;8.00;;
35562;SDS011;21665;40.108;18.302;2022-07-06T17:06:22;8.50;;;7.72;;
35562;SDS011;21665;40.108;18.302;2022-07-06T17:09:01;9.15;;;8.38;;
35562;SDS011;21665;40.108;18.302;2022-07-06T17:11:28;13.80;;;8.23;;
35562;SDS011;21665;40.108;18.302;2022-07-06T17:13:55;9.23;;;8.43;;
35562;SDS011;21665;40.108;18.302;2022-07-06T17:16:25;8.48;;;7.93;;
35562;SDS011;21665;40.108;18.302;2022-07-06T17:18:52;8.57;;;7.60;;
35562;SDS011;21665;40.108;18.302;2022-07-06T17:21:31;9.23;;;8.38;;
35562;SDS011;21665;40.108;18.302;2022-07-06T17:24:05;10.85;;;8.25;;
35562;SDS011;21665;40.108;18.302;2022-07-06T17:26:37;8.75;;;8.13;;
35562;SDS011;21665;40.108;18.302;2022-07-06T17:29:07;8.77;;;8.07;;
35562;SDS011;21665;40.108;18.302;2022-07-06T17:31:35;10.95;;;8.40;;
35562;SDS011;21665;40.108;18.302;2022-07-06T17:34:03;9.23;;;8.15;;
35562;SDS011;21665;40.108;18.302;2022-07-06T17:36:33;9.10;;;7.70;;
35562;SDS011;21665;40.108;18.302;2022-07-06T17:38:59;8.82;;;7.30;;
35562;SDS011;21665;40.108;18.302;2022-07-06T17:41:35;7.57;;;6.97;;
35562;SDS011;21665;40.108;18.302;2022-07-06T17:44:03;7.47;;;6.78;;
35562;SDS011;21665;40.108;18.302;2022-07-06T17:46:34;7.55;;;6.85;;
35562;SDS011;21665;40.108;18.302;2022-07-06T17:49:05;6.53;;;5.82;;
35562;SDS011;21665;40.108;18.302;2022-07-06T17:51:34;6.82;;;6.38;;
35562;SDS011;21665;40.108;18.302;2022-07-06T17:54:02;6.65;;;5.90;;
35562;SDS011;21665;40.108;18.302;2022-07-06T17:56:29;8.00;;;6.40;;
35562;SDS011;21665;40.108;18.302;2022-07-06T17:58:56;7.70;;;6.90;;
35562;SDS011;21665;40.108;18.302;2022-07-06T18:01:28;7.95;;;7.10;;
35562;SDS011;21665;40.108;18.302;2022-07-06T18:03:54;12.23;;;7.07;;
35562;SDS011;21665;40.108;18.302;2022-07-06T18:06:21;7.95;;;6.80;;
35562;SDS011;21665;40.108;18.302;2022-07-06T18:08:49;8.98;;;7.28;;
35562;SDS011;21665;40.108;18.302;2022-07-06T18:11:31;7.80;;;6.80;;
35562;SDS011;21665;40.108;18.302;2022-07-06T18:13:57;6.78;;;5.80;;
35562;SDS011;21665;40.108;18.302;2022-07-06T18:16:32;7.15;;;5.18;;
35562;SDS011;21665;40.108;18.302;2022-07-06T18:21:48;7.00;;;4.15;;
35562;SDS011;21665;40.108;18.302;2022-07-06T18:24:16;7.90;;;4.10;;
35562;SDS011;21665;40.108;18.302;2022-07-06T18:26:44;6.30;;;3.53;;
35562;SDS011;21665;40.108;18.302;2022-07-06T18:29:11;8.63;;;3.63;;
35562;SDS011;21665;40.108;18.302;2022-07-06T18:31:39;5.05;;;3.38;;
35562;SDS011;21665;40.108;18.302;2022-07-06T18:34:06;6.63;;;3.35;;
35562;SDS011;21665;40.108;18.302;2022-07-06T18:36:33;4.63;;;3.25;;
35562;SDS011;21665;40.108;18.302;2022-07-06T18:39:03;8.48;;;2.97;;
35562;SDS011;21665;40.108;18.302;2022-07-06T18:41:39;6.13;;;3.10;;
35562;SDS011;21665;40.108;18.302;2022-07-06T18:44:08;4.20;;;2.80;;
35562;SDS011;21665;40.108;18.302;2022-07-06T18:46:35;6.68;;;3.05;;
35562;SDS011;21665;40.108;18.302;2022-07-06T18:49:05;7.70;;;3.00;;
35562;SDS011;21665;40.108;18.302;2022-07-06T18:51:41;8.20;;;2.97;;
35562;SDS011;21665;40.108;18.302;2022-07-06T18:54:10;6.57;;;3.70;;
35562;SDS011;21665;40.108;18.302;2022-07-06T18:56:38;5.63;;;2.58;;
35562;SDS011;21665;40.108;18.302;2022-07-06T18:59:05;5.47;;;2.90;;
35562;SDS011;21665;40.108;18.302;2022-07-06T19:01:33;6.47;;;2.97;;
35562;SDS011;21665;40.108;18.302;2022-07-06T19:04:01;7.53;;;3.00;;
35562;SDS011;21665;40.108;18.302;2022-07-06T19:06:28;15.18;;;4.57;;
35562;SDS011;21665;40.108;18.302;2022-07-06T19:08:58;6.38;;;3.45;;
35562;SDS011;21665;40.108;18.302;2022-07-06T19:14:10;6.85;;;2.92;;
35562;SDS011;21665;40.108;18.302;2022-07-06T19:16:37;7.05;;;3.13;;
35562;SDS011;21665;40.108;18.302;2022-07-06T19:19:03;7.00;;;3.30;;
35562;SDS011;21665;40.108;18.302;2022-07-06T19:21:32;10.35;;;3.25;;
35562;SDS011;21665;40.108;18.302;2022-07-06T19:24:00;11.27;;;3.28;;
35562;SDS011;21665;40.108;18.302;2022-07-06T19:26:26;5.78;;;2.70;;
35562;SDS011;21665;40.108;18.302;2022-07-06T19:28:53;10.65;;;2.65;;
35562;SDS011;21665;40.108;18.302;2022-07-06T19:31:20;7.72;;;2.72;;
35562;SDS011;21665;40.108;18.302;2022-07-06T19:33:47;3.38;;;2.35;;
35562;SDS011;21665;40.108;18.302;2022-07-06T19:36:13;10.30;;;2.63;;
35562;SDS011;21665;40.108;18.302;2022-07-06T19:38:40;6.05;;;2.58;;
35562;SDS011;21665;40.108;18.302;2022-07-06T19:41:10;7.78;;;2.80;;
35562;SDS011;21665;40.108;18.302;2022-07-06T19:43:37;5.30;;;2.88;;
35562;SDS011;21665;40.108;18.302;2022-07-06T19:46:04;3.53;;;2.55;;
35562;SDS011;21665;40.108;18.302;2022-07-06T19:48:31;5.97;;;3.22;;
35562;SDS011;21665;40.108;18.302;2022-07-06T19:50:57;5.07;;;2.97;;
35562;SDS011;21665;40.108;18.302;2022-07-06T19:53:27;10.63;;;3.53;;
35562;SDS011;21665;40.108;18.302;2022-07-06T19:55:56;7.40;;;3.33;;
35562;SDS011;21665;40.108;18.302;2022-07-06T19:58:24;7.75;;;2.88;;
35562;SDS011;21665;40.108;18.302;2022-07-06T20:00:51;6.43;;;3.22;;
35562;SDS011;21665;40.108;18.302;2022-07-06T20:03:19;10.52;;;3.95;;
35562;SDS011;21665;40.108;18.302;2022-07-06T20:05:54;6.05;;;3.25;;
35562;SDS011;21665;40.108;18.302;2022-07-06T20:08:21;10.15;;;4.22;;
35562;SDS011;21665;40.108;18.302;2022-07-06T20:10:48;7.63;;;3.13;;
35562;SDS011;21665;40.108;18.302;2022-07-06T20:13:15;6.30;;;3.20;;
35562;SDS011;21665;40.108;18.302;2022-07-06T20:15:42;9.80;;;3.33;;
35562;SDS011;21665;40.108;18.302;2022-07-06T20:18:12;8.60;;;3.45;;
35562;SDS011;21665;40.108;18.302;2022-07-06T20:20:40;11.55;;;3.47;;
35562;SDS011;21665;40.108;18.302;2022-07-06T20:23:07;7.68;;;3.22;;
35562;SDS011;21665;40.108;18.302;2022-07-06T20:25:35;9.35;;;3.08;;
35562;SDS011;21665;40.108;18.302;2022-07-06T20:28:01;9.65;;;3.35;;
35562;SDS011;21665;40.108;18.302;2022-07-06T20:30:29;6.57;;;3.20;;
35562;SDS011;21665;40.108;18.302;2022-07-06T20:32:56;5.57;;;2.90;;
35562;SDS011;21665;40.108;18.302;2022-07-06T20:35:23;7.50;;;3.13;;
35562;SDS011;21665;40.108;18.302;2022-07-06T20:37:50;6.13;;;3.13;;
35562;SDS011;21665;40.108;18.302;2022-07-06T20:40:17;8.70;;;3.10;;